createdAt,value
2022-08-16T00:00:38.424Z,0.00
2022-08-16T00:01:40.558Z,0.00
2022-08-16T00:02:36.568Z,0.00
2022-08-16T00:03:37.757Z,0.00
2022-08-16T00:04:35.548Z,0.00
2022-08-16T00:05:35.548Z,0.00
2022-08-16T00:06:36.703Z,0.00
2022-08-16T00:07:35.513Z,0.00
2022-08-16T00:08:37.043Z,0.00
2022-08-16T00:09:35.798Z,0.00
2022-08-16T00:10:35.482Z,0.00
2022-08-16T00:11:35.481Z,0.00
2022-08-16T00:12:35.451Z,0.00
2022-08-16T00:13:41.409Z,0.00
2022-08-16T00:14:36.442Z,0.00
2022-08-16T00:15:51.104Z,0.00
2022-08-16T00:17:05.388Z,0.00
2022-08-16T00:17:56.033Z,0.00
2022-08-16T00:18:36.394Z,0.00
2022-08-16T00:19:41.790Z,0.00
2022-08-16T00:20:36.372Z,0.00
2022-08-16T00:21:35.366Z,0.00
2022-08-16T00:22:35.347Z,0.00
2022-08-16T00:23:40.479Z,0.00
2022-08-16T00:24:36.360Z,0.00
2022-08-16T00:26:33.450Z,0.00
2022-08-16T00:26:43.913Z,0.00
2022-08-16T00:27:36.287Z,0.00
2022-08-16T00:28:35.278Z,0.00
2022-08-16T00:29:35.277Z,0.00
2022-08-16T00:30:35.270Z,0.00
2022-08-16T00:31:59.995Z,0.00
2022-08-16T00:32:36.269Z,0.00
2022-08-16T00:33:35.220Z,0.00
2022-08-16T00:34:43.973Z,0.00
2022-08-16T00:35:36.200Z,0.00
2022-08-16T00:36:35.201Z,0.00
2022-08-16T00:37:57.163Z,0.00
2022-08-16T00:38:40.685Z,0.00
2022-08-16T00:39:36.223Z,0.00
2022-08-16T00:40:36.805Z,0.00
2022-08-16T00:41:38.170Z,0.00
2022-08-16T00:42:35.131Z,0.00
2022-08-16T00:43:42.725Z,0.00
2022-08-16T00:44:36.111Z,0.00
2022-08-16T00:45:35.500Z,0.00
2022-08-16T00:46:35.518Z,0.00
2022-08-16T00:47:35.063Z,0.00
2022-08-16T00:48:45.566Z,0.00
2022-08-16T00:49:39.126Z,0.00
2022-08-16T00:50:36.821Z,0.00
2022-08-16T00:51:35.034Z,0.00
2022-08-16T00:52:35.025Z,0.00
2022-08-16T00:53:35.007Z,0.00
2022-08-16T00:54:35.007Z,0.00
2022-08-16T00:55:38.022Z,0.00
2022-08-16T00:56:56.699Z,0.00
2022-08-16T00:57:59.584Z,0.00
2022-08-16T00:58:35.976Z,0.00
2022-08-16T00:59:34.937Z,0.00
2022-08-16T01:00:34.937Z,0.00
2022-08-16T01:01:35.886Z,0.00
2022-08-16T01:02:34.918Z,0.00
2022-08-16T01:03:35.220Z,0.00
2022-08-16T01:04:34.887Z,0.00
2022-08-16T01:05:34.877Z,0.00
2022-08-16T01:06:48.804Z,0.00
2022-08-16T01:07:51.795Z,0.00
2022-08-16T01:08:36.864Z,0.00
2022-08-16T01:09:34.829Z,0.00
2022-08-16T01:10:34.821Z,0.00
2022-08-16T01:11:34.911Z,0.00
2022-08-16T01:12:35.790Z,0.00
2022-08-16T01:13:34.792Z,0.00
2022-08-16T01:14:34.783Z,0.00
2022-08-16T01:15:34.774Z,0.00
2022-08-16T01:16:34.988Z,0.00
2022-08-16T01:17:36.870Z,0.00
2022-08-16T01:18:40.442Z,0.00
2022-08-16T01:19:35.731Z,0.00
2022-08-16T01:20:35.723Z,0.00
2022-08-16T01:21:34.787Z,0.00
2022-08-16T01:22:48.372Z,0.00
2022-08-16T01:23:58.673Z,0.00
2022-08-16T01:24:51.477Z,0.00
2022-08-16T01:25:36.304Z,0.00
2022-08-16T01:26:35.609Z,0.00
2022-08-16T01:27:34.843Z,0.00
2022-08-16T01:28:36.969Z,0.00
2022-08-16T01:29:57.263Z,0.00
2022-08-16T01:30:39.741Z,0.00
2022-08-16T01:31:37.526Z,0.00
2022-08-16T01:32:35.578Z,0.00
2022-08-16T01:33:35.803Z,0.00
2022-08-16T01:34:34.580Z,0.00
2022-08-16T01:35:36.166Z,0.00
2022-08-16T01:36:34.579Z,0.00
2022-08-16T01:37:35.760Z,0.00
2022-08-16T01:38:34.520Z,0.00
2022-08-16T01:39:35.554Z,0.00
2022-08-16T01:40:34.520Z,0.00
2022-08-16T01:41:34.499Z,0.00
2022-08-16T01:42:35.479Z,0.00
2022-08-16T01:43:34.461Z,0.00
2022-08-16T01:44:37.522Z,0.00
2022-08-16T01:45:39.678Z,0.00
2022-08-16T01:46:39.131Z,0.00
2022-08-16T01:47:35.432Z,0.00
2022-08-16T01:48:34.413Z,0.00
2022-08-16T01:49:43.141Z,0.00
2022-08-16T01:50:42.277Z,0.00
2022-08-16T01:51:35.393Z,0.00
2022-08-16T01:52:34.363Z,0.00
2022-08-16T01:53:34.362Z,0.00
2022-08-16T01:54:34.342Z,0.00
2022-08-16T01:55:35.713Z,0.00
2022-08-16T01:56:34.660Z,0.00
2022-08-16T01:57:35.521Z,0.00
2022-08-16T01:58:34.307Z,0.00
2022-08-16T01:59:34.290Z,0.00
2022-08-16T02:00:34.309Z,0.00
2022-08-16T02:01:34.377Z,0.00
2022-08-16T02:02:34.257Z,0.00
2022-08-16T02:03:35.247Z,0.00
2022-08-16T02:04:48.787Z,0.00
2022-08-16T02:05:35.226Z,0.00
2022-08-16T02:06:37.874Z,0.00
2022-08-16T02:07:34.217Z,0.00
2022-08-16T02:08:34.313Z,0.00
2022-08-16T02:09:34.188Z,0.00
2022-08-16T02:10:34.170Z,0.00
2022-08-16T02:11:47.943Z,0.00
2022-08-16T02:12:51.682Z,0.00
2022-08-16T02:13:35.130Z,0.00
2022-08-16T02:14:34.123Z,0.00
2022-08-16T02:15:37.879Z,0.00
2022-08-16T02:16:35.100Z,0.00
2022-08-16T02:17:34.101Z,0.00
2022-08-16T02:18:34.071Z,0.00
2022-08-16T02:19:58.581Z,0.00
2022-08-16T02:20:35.130Z,0.00
2022-08-16T02:21:34.061Z,0.00
2022-08-16T02:22:36.902Z,0.00
2022-08-16T02:23:34.030Z,0.00
2022-08-16T02:24:41.279Z,0.00
2022-08-16T02:25:50.800Z,0.00
2022-08-16T02:26:34.993Z,0.00
2022-08-16T02:27:33.992Z,0.00
2022-08-16T02:28:33.998Z,0.00
2022-08-16T02:29:33.975Z,0.00
2022-08-16T02:30:37.014Z,0.00
2022-08-16T02:32:02.699Z,0.00
2022-08-16T02:32:50.071Z,0.00
2022-08-16T02:33:43.814Z,0.00
2022-08-16T02:34:40.953Z,0.00
2022-08-16T02:35:34.904Z,0.00
2022-08-16T02:36:34.867Z,0.00
2022-08-16T02:37:51.742Z,0.00
2022-08-16T02:38:34.857Z,0.00
2022-08-16T02:39:33.894Z,0.00
2022-08-16T02:40:33.849Z,0.00
2022-08-16T02:41:34.167Z,0.00
2022-08-16T02:42:34.808Z,0.00
2022-08-16T02:43:33.832Z,0.00
2022-08-16T02:44:33.790Z,0.00
2022-08-16T02:45:33.779Z,0.00
2022-08-16T02:46:33.900Z,0.00
2022-08-16T02:47:33.770Z,0.00
2022-08-16T02:48:34.781Z,0.00
2022-08-16T02:49:59.178Z,0.00
2022-08-16T02:50:53.444Z,0.00
2022-08-16T02:51:35.680Z,0.00
2022-08-16T02:52:33.761Z,0.00
2022-08-16T02:53:33.697Z,0.00
2022-08-16T02:54:33.672Z,0.00
2022-08-16T02:55:41.276Z,0.00
2022-08-16T02:56:34.645Z,0.00
2022-08-16T02:57:33.649Z,0.00
2022-08-16T02:58:33.628Z,0.00
2022-08-16T02:59:39.889Z,0.00
2022-08-16T03:00:35.273Z,0.00
2022-08-16T03:01:37.035Z,0.00
2022-08-16T03:02:33.594Z,0.00
2022-08-16T03:04:29.278Z,0.00
2022-08-16T03:04:50.269Z,0.00
2022-08-16T03:05:34.556Z,0.00
2022-08-16T03:06:41.760Z,0.00
2022-08-16T03:07:37.345Z,0.00
2022-08-16T03:08:51.007Z,0.00
2022-08-16T03:09:34.511Z,0.00
2022-08-16T03:10:34.110Z,0.00
2022-08-16T03:11:35.490Z,0.00
2022-08-16T03:12:37.908Z,0.00
2022-08-16T03:13:39.969Z,0.00
2022-08-16T03:14:34.448Z,0.00
2022-08-16T03:15:33.438Z,0.00
2022-08-16T03:16:39.165Z,0.00
2022-08-16T03:17:34.429Z,0.00
2022-08-16T03:18:34.603Z,0.00
2022-08-16T03:19:46.914Z,0.00
2022-08-16T03:20:34.383Z,0.00
2022-08-16T03:21:38.243Z,0.00
2022-08-16T03:22:34.370Z,0.00
2022-08-16T03:23:35.726Z,0.00
2022-08-16T03:24:33.331Z,0.00
2022-08-16T03:25:44.750Z,0.00
2022-08-16T03:26:34.302Z,0.00
2022-08-16T03:27:33.435Z,0.00
2022-08-16T03:28:33.292Z,0.00
2022-08-16T03:29:33.282Z,0.00
2022-08-16T03:30:33.266Z,0.00
2022-08-16T03:31:34.665Z,0.00
2022-08-16T03:32:34.256Z,0.00
2022-08-16T03:33:33.224Z,0.00
2022-08-16T03:34:33.238Z,0.00
2022-08-16T03:35:33.743Z,0.00
2022-08-16T03:36:33.204Z,0.00
2022-08-16T03:37:33.196Z,0.00
2022-08-16T03:38:35.280Z,0.00
2022-08-16T03:39:33.189Z,0.00
2022-08-16T03:40:34.377Z,0.00
2022-08-16T03:41:50.118Z,0.00
2022-08-16T03:42:34.149Z,0.00
2022-08-16T03:43:51.034Z,0.00
2022-08-16T03:44:44.241Z,0.00
2022-08-16T03:45:34.088Z,0.00
2022-08-16T03:46:47.597Z,0.00
2022-08-16T03:47:34.444Z,0.00
2022-08-16T03:48:36.705Z,0.00
2022-08-16T03:49:36.546Z,0.00
2022-08-16T03:50:33.038Z,0.00
2022-08-16T03:51:33.028Z,0.00
2022-08-16T03:52:33.041Z,0.00
2022-08-16T03:53:37.636Z,0.00
2022-08-16T03:54:35.557Z,0.00
2022-08-16T03:55:45.506Z,0.00
2022-08-16T03:56:33.971Z,0.00
2022-08-16T03:57:36.422Z,0.00
2022-08-16T03:58:32.952Z,0.00
2022-08-16T03:59:32.934Z,0.00
2022-08-16T04:00:41.020Z,0.00
2022-08-16T04:01:33.949Z,0.00
2022-08-16T04:02:32.904Z,0.00
2022-08-16T04:03:32.956Z,0.00
2022-08-16T04:04:33.984Z,0.00
2022-08-16T04:05:32.869Z,0.00
2022-08-16T04:06:32.854Z,0.00
2022-08-16T04:07:33.540Z,0.00
2022-08-16T04:08:34.723Z,0.00
2022-08-16T04:09:35.442Z,0.00
2022-08-16T04:10:37.146Z,0.00
2022-08-16T04:11:36.872Z,5.62
2022-08-16T04:13:04.344Z,5.62
2022-08-16T04:14:00.813Z,5.62
2022-08-16T04:14:33.776Z,5.62
2022-08-16T04:15:32.747Z,5.62
2022-08-16T04:16:33.831Z,5.62
2022-08-16T04:17:32.741Z,5.62
2022-08-16T04:18:32.727Z,11.25
2022-08-16T04:19:32.709Z,11.25
2022-08-16T04:20:36.739Z,11.25
2022-08-16T04:21:32.695Z,11.25
2022-08-16T04:22:32.679Z,16.88
2022-08-16T04:23:32.678Z,16.88
2022-08-16T04:24:32.658Z,16.88
2022-08-16T04:25:32.652Z,16.88
2022-08-16T04:26:32.637Z,22.50
2022-08-16T04:27:32.619Z,22.50
2022-08-16T04:28:53.270Z,22.50
2022-08-16T04:29:43.821Z,22.50
2022-08-16T04:30:35.031Z,28.12
2022-08-16T04:31:32.591Z,28.12
2022-08-16T04:32:32.570Z,28.12
2022-08-16T04:33:34.819Z,33.75
2022-08-16T04:34:32.676Z,33.75
2022-08-16T04:35:33.968Z,39.38
2022-08-16T04:36:32.522Z,39.38
2022-08-16T04:37:32.514Z,39.38
2022-08-16T04:38:33.527Z,45.00
2022-08-16T04:39:46.242Z,45.00
2022-08-16T04:40:33.511Z,45.00
2022-08-16T04:41:37.393Z,50.62
2022-08-16T04:42:35.950Z,50.62
2022-08-16T04:43:32.474Z,56.25
2022-08-16T04:44:54.694Z,56.25
2022-08-16T04:45:36.142Z,61.88
2022-08-16T04:47:02.324Z,61.88
2022-08-16T04:47:35.670Z,67.50
2022-08-16T04:48:32.849Z,67.50
2022-08-16T04:49:43.994Z,73.12
2022-08-16T04:50:33.368Z,73.12
2022-08-16T04:51:35.750Z,73.12
2022-08-16T04:52:35.277Z,78.75
2022-08-16T04:53:32.349Z,78.75
2022-08-16T04:54:32.318Z,84.38
2022-08-16T04:55:38.345Z,84.38
2022-08-16T04:56:33.298Z,90.00
2022-08-16T04:57:32.321Z,90.00
2022-08-16T04:58:45.881Z,95.62
2022-08-16T04:59:33.279Z,95.62
2022-08-16T05:00:33.747Z,101.25
2022-08-16T05:01:55.957Z,101.25
2022-08-16T05:02:41.917Z,106.88
2022-08-16T05:03:33.265Z,106.88
2022-08-16T05:04:32.215Z,112.50
2022-08-16T05:05:36.685Z,112.50
2022-08-16T05:06:42.155Z,118.12
2022-08-16T05:07:33.183Z,118.12
2022-08-16T05:08:32.188Z,123.75
2022-08-16T05:09:36.506Z,123.75
2022-08-16T05:10:33.147Z,129.38
2022-08-16T05:11:32.364Z,129.38
2022-08-16T05:12:32.130Z,135.00
2022-08-16T05:13:41.311Z,135.00
2022-08-16T05:14:45.721Z,140.62
2022-08-16T05:15:33.097Z,140.62
2022-08-16T05:16:32.074Z,146.25
2022-08-16T05:17:32.538Z,146.25
2022-08-16T05:18:32.057Z,146.25
2022-08-16T05:19:35.991Z,151.88
2022-08-16T05:20:39.049Z,151.88
2022-08-16T05:21:38.127Z,157.50
2022-08-16T05:22:33.009Z,157.50
2022-08-16T05:23:32.128Z,163.12
2022-08-16T05:24:32.002Z,163.12
2022-08-16T05:25:40.809Z,168.75
2022-08-16T05:26:32.971Z,168.75
2022-08-16T05:27:31.958Z,174.38
2022-08-16T05:28:39.015Z,174.38
2022-08-16T05:29:57.847Z,180.00
2022-08-16T05:30:36.774Z,180.00
2022-08-16T05:31:31.932Z,180.00
2022-08-16T05:32:36.509Z,180.00
2022-08-16T05:33:32.930Z,185.62
2022-08-16T05:34:31.886Z,185.62
2022-08-16T05:35:31.878Z,191.25
2022-08-16T05:36:36.560Z,191.25
2022-08-16T05:37:39.693Z,196.88
2022-08-16T05:38:39.179Z,196.88
2022-08-16T05:39:33.354Z,202.50
2022-08-16T05:40:31.824Z,202.50
2022-08-16T05:41:31.815Z,208.12
2022-08-16T05:42:35.865Z,208.12
2022-08-16T05:43:43.283Z,208.12
2022-08-16T05:44:32.764Z,213.75
2022-08-16T05:45:31.767Z,213.75
2022-08-16T05:46:31.784Z,219.38
2022-08-16T05:47:31.745Z,219.38
2022-08-16T05:48:31.753Z,225.00
2022-08-16T05:49:39.841Z,230.62
2022-08-16T05:50:33.857Z,230.62
2022-08-16T05:51:39.014Z,236.25
2022-08-16T05:52:32.680Z,275.62
2022-08-16T05:53:31.686Z,365.62
2022-08-16T05:54:32.728Z,438.75
2022-08-16T05:55:31.656Z,478.12
2022-08-16T05:56:31.639Z,511.88
2022-08-16T05:57:35.611Z,562.50
2022-08-16T05:58:33.446Z,568.12
2022-08-16T05:59:31.610Z,624.38
2022-08-16T06:00:31.634Z,720.00
2022-08-16T06:01:32.867Z,855.00
2022-08-16T06:02:33.369Z,849.38
2022-08-16T06:03:31.686Z,663.75
2022-08-16T06:04:36.387Z,573.75
2022-08-16T06:05:36.236Z,556.88
2022-08-16T06:06:32.542Z,556.88
2022-08-16T06:07:32.089Z,573.75
2022-08-16T06:08:42.029Z,601.88
2022-08-16T06:09:42.896Z,618.75
2022-08-16T06:10:33.377Z,641.25
2022-08-16T06:11:31.481Z,669.38
2022-08-16T06:12:31.476Z,675.00
2022-08-16T06:13:32.548Z,686.25
2022-08-16T06:14:31.434Z,703.12
2022-08-16T06:15:31.439Z,714.38
2022-08-16T06:16:31.415Z,725.62
2022-08-16T06:17:42.610Z,748.12
2022-08-16T06:18:32.525Z,776.25
2022-08-16T06:19:33.928Z,798.75
2022-08-16T06:20:35.374Z,815.62
2022-08-16T06:21:36.910Z,860.62
2022-08-16T06:22:39.211Z,888.75
2022-08-16T06:23:32.472Z,900.00
2022-08-16T06:24:53.815Z,905.62
2022-08-16T06:25:36.628Z,911.25
2022-08-16T06:26:34.840Z,928.12
2022-08-16T06:27:39.759Z,956.25
2022-08-16T06:28:35.598Z,973.12
2022-08-16T06:29:31.290Z,990.00
2022-08-16T06:30:31.262Z,1001.25
2022-08-16T06:31:31.260Z,1001.25
2022-08-16T06:32:38.355Z,967.50
2022-08-16T06:33:41.198Z,973.12
2022-08-16T06:34:56.933Z,995.62
2022-08-16T06:35:40.201Z,1035.00
2022-08-16T06:36:32.460Z,1080.00
2022-08-16T06:37:37.506Z,1102.50
2022-08-16T06:38:34.500Z,1175.62
2022-08-16T06:39:31.208Z,1181.25
2022-08-16T06:40:33.249Z,1153.12
2022-08-16T06:41:39.855Z,1175.62
2022-08-16T06:42:39.525Z,1192.50
2022-08-16T06:43:32.127Z,1271.25
2022-08-16T06:44:31.115Z,1316.25
2022-08-16T06:45:31.117Z,1333.12
2022-08-16T06:46:31.620Z,1316.25
2022-08-16T06:47:54.243Z,1338.75
2022-08-16T06:48:32.702Z,1350.00
2022-08-16T06:49:31.435Z,1310.62
2022-08-16T06:50:31.050Z,1310.62
2022-08-16T06:51:46.521Z,1333.12
2022-08-16T06:52:59.682Z,1366.88
2022-08-16T06:53:32.019Z,1417.50
2022-08-16T06:54:30.999Z,1428.75
2022-08-16T06:55:34.159Z,1445.62
2022-08-16T06:56:30.996Z,1530.00
2022-08-16T06:57:31.013Z,1530.00
2022-08-16T06:58:32.203Z,1552.50
2022-08-16T06:59:31.052Z,1530.00
2022-08-16T07:00:32.197Z,1518.75
2022-08-16T07:01:43.256Z,1524.38
2022-08-16T07:02:32.852Z,1603.12
2022-08-16T07:03:32.219Z,1580.62
2022-08-16T07:04:32.600Z,1580.62
2022-08-16T07:05:41.520Z,1642.50
2022-08-16T07:06:31.885Z,1681.88
2022-08-16T07:07:34.480Z,1715.62
2022-08-16T07:08:31.899Z,1743.75
2022-08-16T07:09:30.903Z,1738.12
2022-08-16T07:10:30.847Z,1726.88
2022-08-16T07:11:48.272Z,1738.12
2022-08-16T07:12:36.563Z,1783.12
2022-08-16T07:14:00.221Z,1766.25
2022-08-16T07:14:31.796Z,1822.50
2022-08-16T07:15:30.769Z,1816.88
2022-08-16T07:16:30.770Z,1788.75
2022-08-16T07:17:30.760Z,1805.62
2022-08-16T07:18:30.742Z,1777.50
2022-08-16T07:19:33.519Z,1822.50
2022-08-16T07:20:46.992Z,1816.88
2022-08-16T07:21:45.652Z,1805.62
2022-08-16T07:22:52.434Z,1822.50
2022-08-16T07:23:39.080Z,1845.00
2022-08-16T07:24:31.690Z,1811.25
2022-08-16T07:25:30.674Z,1890.00
2022-08-16T07:26:30.676Z,1845.00
2022-08-16T07:27:33.715Z,1861.88
2022-08-16T07:28:30.647Z,1980.00
2022-08-16T07:29:31.470Z,1935.00
2022-08-16T07:30:38.997Z,1985.62
2022-08-16T07:31:37.446Z,2058.75
2022-08-16T07:32:31.792Z,2165.62
2022-08-16T07:33:53.592Z,2238.75
2022-08-16T07:34:35.604Z,2233.12
2022-08-16T07:35:31.570Z,2148.75
2022-08-16T07:36:30.913Z,2109.38
2022-08-16T07:37:30.580Z,2176.88
2022-08-16T07:38:33.916Z,2227.50
2022-08-16T07:39:33.659Z,2154.38
2022-08-16T07:40:56.335Z,2165.62
2022-08-16T07:41:31.951Z,2255.62
2022-08-16T07:42:34.956Z,2238.75
2022-08-16T07:43:30.733Z,2328.75
2022-08-16T07:44:49.343Z,2306.25
2022-08-16T07:45:33.609Z,2317.50
2022-08-16T07:46:39.671Z,2317.50
2022-08-16T07:47:32.136Z,2385.00
2022-08-16T07:48:30.437Z,2311.88
2022-08-16T07:49:32.340Z,2463.75
2022-08-16T07:50:57.299Z,2463.75
2022-08-16T07:51:31.406Z,2418.75
2022-08-16T07:52:30.408Z,2531.25
2022-08-16T07:53:30.408Z,2593.12
2022-08-16T07:54:32.428Z,2660.62
2022-08-16T07:55:45.437Z,2626.88
2022-08-16T07:56:34.063Z,2576.25
2022-08-16T07:57:34.992Z,2598.75
2022-08-16T07:58:34.872Z,2615.62
2022-08-16T07:59:42.962Z,2610.00
2022-08-16T08:00:31.303Z,2576.25
2022-08-16T08:01:30.301Z,2559.38
2022-08-16T08:02:30.311Z,2570.62
2022-08-16T08:03:36.192Z,2598.75
2022-08-16T08:04:32.427Z,2565.00
2022-08-16T08:05:35.631Z,2458.12
2022-08-16T08:06:31.245Z,2593.12
2022-08-16T08:07:32.427Z,2666.25
2022-08-16T08:08:50.404Z,2773.12
2022-08-16T08:09:31.236Z,2728.12
2022-08-16T08:10:30.211Z,2756.25
2022-08-16T08:11:30.219Z,2812.50
2022-08-16T08:12:32.028Z,2818.12
2022-08-16T08:13:42.589Z,2756.25
2022-08-16T08:14:31.179Z,2677.50
2022-08-16T08:15:34.163Z,2728.12
2022-08-16T08:16:31.089Z,2700.00
2022-08-16T08:17:43.347Z,2649.38
2022-08-16T08:18:31.200Z,2671.88
2022-08-16T08:19:30.132Z,2947.50
2022-08-16T08:20:30.116Z,2970.00
2022-08-16T08:22:00.685Z,3093.75
2022-08-16T08:22:31.083Z,3105.00
2022-08-16T08:23:30.085Z,3060.00
2022-08-16T08:24:32.099Z,2992.50
2022-08-16T08:25:54.382Z,2970.00
2022-08-16T08:26:31.055Z,2998.12
2022-08-16T08:27:32.665Z,3082.50
2022-08-16T08:28:30.037Z,3279.38
2022-08-16T08:29:37.564Z,2970.00
2022-08-16T08:30:51.615Z,2801.25
2022-08-16T08:31:31.059Z,3003.75
2022-08-16T08:32:58.831Z,3015.00
2022-08-16T08:33:30.979Z,2919.38
2022-08-16T08:34:29.971Z,2874.38
2022-08-16T08:35:29.973Z,3206.25
2022-08-16T08:36:32.895Z,3397.50
2022-08-16T08:37:54.223Z,2975.62
2022-08-16T08:38:43.660Z,2880.00
2022-08-16T08:39:30.973Z,3020.62
2022-08-16T08:40:29.998Z,3155.62
2022-08-16T08:41:30.474Z,3245.62
2022-08-16T08:42:29.892Z,3363.75
2022-08-16T08:43:29.893Z,3217.50
2022-08-16T08:44:31.328Z,3279.38
2022-08-16T08:45:48.211Z,3273.75
2022-08-16T08:46:35.756Z,3346.88
2022-08-16T08:47:30.858Z,3414.38
2022-08-16T08:48:33.380Z,3431.25
2022-08-16T08:49:46.501Z,3301.88
2022-08-16T08:50:31.891Z,3420.00
2022-08-16T08:51:35.540Z,3420.00
2022-08-16T08:52:34.459Z,3262.50
2022-08-16T08:53:30.917Z,3240.00
2022-08-16T08:54:29.769Z,3476.25
2022-08-16T08:55:30.844Z,3465.00
2022-08-16T08:56:29.820Z,3279.38
2022-08-16T08:57:29.761Z,3307.50
2022-08-16T08:58:34.121Z,3341.25
2022-08-16T08:59:29.742Z,3515.62
2022-08-16T09:00:30.085Z,3622.50
2022-08-16T09:01:31.963Z,3448.12
2022-08-16T09:02:30.705Z,3453.75
2022-08-16T09:03:29.705Z,3279.38
2022-08-16T09:04:29.736Z,3346.88
2022-08-16T09:05:35.772Z,3487.50
2022-08-16T09:06:30.655Z,3386.25
2022-08-16T09:07:29.656Z,3285.00
2022-08-16T09:08:29.647Z,3420.00
2022-08-16T09:09:33.527Z,3453.75
2022-08-16T09:10:29.885Z,3487.50
2022-08-16T09:11:38.853Z,3571.88
2022-08-16T09:12:36.190Z,3543.75
2022-08-16T09:13:32.735Z,3678.75
2022-08-16T09:14:29.670Z,3684.38
2022-08-16T09:15:32.480Z,3448.12
2022-08-16T09:17:02.280Z,3594.38
2022-08-16T09:17:47.434Z,3600.00
2022-08-16T09:18:35.376Z,3740.62
2022-08-16T09:19:32.282Z,3988.12
2022-08-16T09:20:29.634Z,3729.38
2022-08-16T09:21:31.170Z,3690.00
2022-08-16T09:22:29.532Z,3628.12
2022-08-16T09:23:29.532Z,3616.88
2022-08-16T09:24:52.886Z,3695.62
2022-08-16T09:25:33.779Z,3740.62
2022-08-16T09:26:44.679Z,3695.62
2022-08-16T09:27:30.465Z,3706.88
2022-08-16T09:29:13.634Z,3813.75
2022-08-16T09:29:45.307Z,3903.75
2022-08-16T09:30:33.888Z,4021.88
2022-08-16T09:31:30.437Z,3819.38
2022-08-16T09:32:30.567Z,3515.62
2022-08-16T09:33:32.502Z,3583.12
2022-08-16T09:34:30.408Z,3999.38
2022-08-16T09:35:29.400Z,4303.12
2022-08-16T09:36:32.452Z,4275.00
2022-08-16T09:37:30.154Z,4117.50
2022-08-16T09:38:32.386Z,3931.88
2022-08-16T09:39:41.464Z,4162.50
2022-08-16T09:40:32.696Z,4640.62
2022-08-16T09:41:30.352Z,3988.12
2022-08-16T09:42:29.331Z,3735.00
2022-08-16T09:45:13.145Z,3588.75
2022-08-16T09:45:30.322Z,3645.00
2022-08-16T09:46:48.192Z,3391.88
2022-08-16T09:47:56.311Z,3498.75
2022-08-16T09:48:44.472Z,3453.75
2022-08-16T09:49:37.078Z,3127.50
2022-08-16T09:50:36.914Z,3600.00
2022-08-16T09:51:30.724Z,3363.75
2022-08-16T09:52:30.280Z,3960.00
2022-08-16T09:53:29.274Z,3808.12
2022-08-16T09:54:32.233Z,3909.38
2022-08-16T09:55:29.217Z,4061.25
2022-08-16T09:56:29.209Z,4213.12
2022-08-16T09:57:34.559Z,4033.12
2022-08-16T09:58:41.933Z,3791.25
2022-08-16T09:59:30.750Z,3757.50
2022-08-16T10:00:45.195Z,3819.38
2022-08-16T10:01:30.180Z,3616.88
2022-08-16T10:02:29.161Z,3605.62
2022-08-16T10:03:30.408Z,3611.25
2022-08-16T10:04:35.645Z,3352.50
2022-08-16T10:05:30.122Z,3639.38
2022-08-16T10:06:33.445Z,3819.38
2022-08-16T10:07:44.070Z,3684.38
2022-08-16T10:08:30.115Z,3757.50
2022-08-16T10:09:53.369Z,3819.38
2022-08-16T10:10:30.553Z,3645.00
2022-08-16T10:11:29.096Z,3549.38
2022-08-16T10:12:29.066Z,3498.75
2022-08-16T10:13:29.373Z,3510.00
2022-08-16T10:14:33.157Z,3453.75
2022-08-16T10:15:30.225Z,3510.00
2022-08-16T10:16:29.040Z,3566.25
2022-08-16T10:17:29.048Z,3144.38
2022-08-16T10:19:01.475Z,3183.75
2022-08-16T10:19:31.943Z,3296.25
2022-08-16T10:20:29.010Z,3206.25
2022-08-16T10:21:29.222Z,3313.12
2022-08-16T10:22:28.989Z,3808.12
2022-08-16T10:23:28.971Z,4078.12
2022-08-16T10:24:29.211Z,4055.62
2022-08-16T10:27:18.069Z,4297.50
2022-08-16T10:27:20.518Z,4179.38
2022-08-16T10:27:46.068Z,4224.38
2022-08-16T10:28:32.166Z,4162.50
2022-08-16T10:30:00.475Z,4258.12
2022-08-16T10:30:31.863Z,4145.62
2022-08-16T10:31:45.706Z,3965.62
2022-08-16T10:32:30.624Z,4038.75
2022-08-16T10:33:29.483Z,4050.00
2022-08-16T10:34:32.142Z,4061.25
2022-08-16T10:35:33.131Z,4038.75
2022-08-16T10:36:38.721Z,4151.25
2022-08-16T10:37:32.833Z,4246.88
2022-08-16T10:38:29.866Z,3988.12
2022-08-16T10:39:40.487Z,4106.25
2022-08-16T10:40:30.815Z,4078.12
2022-08-16T10:41:28.811Z,3729.38
2022-08-16T10:42:28.799Z,3538.12
2022-08-16T10:43:30.944Z,3639.38
2022-08-16T10:44:28.800Z,3836.25
2022-08-16T10:45:28.770Z,3819.38
2022-08-16T10:46:40.028Z,3645.00
2022-08-16T10:47:33.155Z,3571.88
2022-08-16T10:48:29.741Z,3813.75
2022-08-16T10:49:28.781Z,4038.75
2022-08-16T10:50:28.732Z,3960.00
2022-08-16T10:51:34.529Z,4111.88
2022-08-16T10:53:32.654Z,3988.12
2022-08-16T10:54:30.615Z,4050.00
2022-08-16T10:55:45.616Z,4258.12
2022-08-16T10:56:55.347Z,4061.25
2022-08-16T10:57:32.810Z,4162.50
2022-08-16T10:58:34.368Z,4066.88
2022-08-16T10:59:39.188Z,3836.25
2022-08-16T11:00:29.648Z,4050.00
2022-08-16T11:01:39.831Z,4432.50
2022-08-16T12:47:00.213Z,725.62
2022-08-16T12:48:22.559Z,950.62
2022-08-16T12:49:01.295Z,1260.00
2022-08-16T12:50:00.167Z,3133.12
2022-08-16T12:51:01.105Z,3976.88
2022-08-16T12:52:01.442Z,3948.75
2022-08-16T12:53:00.156Z,3819.38
2022-08-16T12:54:00.137Z,3774.38
2022-08-16T12:55:00.129Z,3757.50
2022-08-16T12:56:00.124Z,3836.25
2022-08-16T12:57:00.140Z,3780.00
2022-08-16T12:58:00.381Z,3678.75
2022-08-16T12:59:00.121Z,3774.38
2022-08-16T13:00:00.078Z,3943.12
2022-08-16T13:01:00.113Z,3740.62
2022-08-16T13:02:00.068Z,3571.88
2022-08-16T13:03:00.060Z,3397.50
2022-08-16T13:04:11.879Z,3701.25
2022-08-16T13:05:01.051Z,3853.12
2022-08-16T13:06:00.031Z,3622.50
2022-08-16T13:07:00.089Z,3380.62
2022-08-16T13:08:00.579Z,3330.00
2022-08-16T13:09:00.020Z,3611.25
2022-08-16T13:10:02.518Z,3459.38
2022-08-16T13:11:00.993Z,3318.75
2022-08-16T13:12:00.064Z,3380.62
2022-08-16T13:12:59.984Z,3538.12
2022-08-16T13:13:59.959Z,3560.62
2022-08-16T13:14:59.967Z,3521.25
2022-08-16T13:16:02.185Z,3577.50
2022-08-16T13:16:59.946Z,3335.62
2022-08-16T13:17:59.934Z,3285.00
2022-08-16T13:18:59.934Z,3330.00
2022-08-16T13:20:11.038Z,3386.25
2022-08-16T13:21:00.917Z,3566.25
2022-08-16T13:21:59.897Z,3594.38
2022-08-16T13:22:59.908Z,3616.88
2022-08-16T13:23:59.878Z,3510.00
2022-08-16T13:24:59.870Z,3600.00
2022-08-16T13:25:59.860Z,3594.38
2022-08-16T13:26:59.859Z,3476.25
2022-08-16T13:28:04.035Z,3245.62
2022-08-16T13:28:59.841Z,3330.00
2022-08-16T13:29:59.831Z,3262.50
2022-08-16T13:30:59.821Z,3223.12
2022-08-16T13:31:59.812Z,3330.00
2022-08-16T13:32:59.829Z,3431.25
2022-08-16T13:33:59.792Z,3240.00
2022-08-16T13:34:59.814Z,3121.88
2022-08-16T13:35:59.783Z,3262.50
2022-08-16T13:36:59.771Z,3172.50
2022-08-16T13:37:59.775Z,3206.25
2022-08-16T13:38:59.754Z,3121.88
2022-08-16T13:39:59.799Z,3279.38
2022-08-16T13:40:59.742Z,3301.88
2022-08-16T13:41:59.726Z,2908.12
2022-08-16T13:42:59.726Z,3285.00
2022-08-16T13:43:59.744Z,3335.62
2022-08-16T13:44:59.708Z,3206.25
2022-08-16T13:45:59.695Z,3071.25
2022-08-16T13:46:59.687Z,2936.25
2022-08-16T13:47:59.678Z,3020.62
2022-08-16T13:48:59.670Z,3178.12
2022-08-16T13:49:59.658Z,3031.88
2022-08-16T13:51:04.051Z,2874.38
2022-08-16T13:51:59.660Z,2711.25
2022-08-16T13:52:59.649Z,2148.75
2022-08-16T13:54:03.195Z,1788.75
2022-08-16T13:54:59.621Z,1108.12
2022-08-16T13:55:59.614Z,1091.25
2022-08-16T13:56:59.602Z,1693.12
2022-08-16T13:58:37.029Z,2553.75
2022-08-16T13:59:00.815Z,1361.25
2022-08-16T13:59:59.572Z,1102.50
2022-08-16T14:00:59.568Z,1080.00
2022-08-16T14:02:02.688Z,1057.50
2022-08-16T14:02:59.707Z,1029.38
2022-08-16T14:03:59.536Z,1006.88
2022-08-16T14:05:03.007Z,1001.25
2022-08-16T14:06:00.611Z,995.62
2022-08-16T14:06:59.519Z,1006.88
2022-08-16T14:07:59.507Z,1068.75
2022-08-16T14:09:06.554Z,1451.25
2022-08-16T14:10:00.480Z,1935.00
2022-08-16T14:10:59.498Z,1085.62
2022-08-16T14:12:00.394Z,1057.50
2022-08-16T14:12:59.469Z,1012.50
2022-08-16T14:13:59.453Z,961.88
2022-08-16T14:14:59.436Z,933.75
2022-08-16T14:15:59.422Z,945.00
2022-08-16T14:16:59.413Z,961.88
2022-08-16T14:18:17.168Z,1136.25
2022-08-16T14:19:00.414Z,1231.88
2022-08-16T14:19:59.983Z,1861.88
2022-08-16T14:20:59.389Z,2435.62